Ana Sayfa
METAR-TAF:

METAR-TAF

Havaalanları :

Corsicana Municipal Airport (C. David Campbell Field)

Corsicana, Teksas, Amerika Birleşik Devletleri

Enlem: 32-01-52N, Boylam: 096-23-56W, yükseklik: 136 m

Güncel hava durumu gözlemi

Rapor saat 09:53 UTC de 1 saat ve 1 dakika önce yapıldı.
Rüzgar güneydan 5 kt
Sıcaklık 24°C
Nem 94%
Basınç 1015 hPa
Görüş mesafesi: 16.1 km
Açık gökyüzü

METAR: KCRS 220953Z AUTO 19005KT 10SM CLR 24/23 A2997 RMK AO2 SLP143 T02390228 $

Saat: 05:54 (10:54 UTC)


TAF: eksik

4.000'den fazla havaalanı için hava durumu gözlemleri ve tahminleri (METAR ve TAF raporları).

Kullanılabilir istasyonlar harita üzerinde sarı ve kırmızı noktalarla gösterilir.

İstasyonun adını görmek için fareyi noktanın üzerinde gezdirin.

Sonrasında hava gözlem ve tahminlerini görmek için tıklayın.

Haritayı değiştirmek için: yaklaştırmak için siyah artı işaretli yeşil düğmeye ve uzaklaştırmak için de eksi işaretli düğmeye hızla tıklayın; bitişik haritalar için yeşil okları kullanın.


METAR-TAF: